Airfield :
LOGIN :

Register | Disclaimer

   EN    FR    IT 

 










Legend :    VFR   Marginal VFR   IFR   Intensive IFR   Very Intensive IFR
Visi :
Ceiling :
>= 8 km
>= 3000ft
5 to 8 km
1000 to 3000 ft
1500m to 5 km
500 to 1000 ft
800 to 1500m
200 to 500 ft
< 800m
< 200 ft
Symbols :   Thunderstorms  Fog  Heavy snow  Heavy precipitations  Wind > 20 kt
SIGMETs :     Misc.  Thunderstorms  Icing  Turbulence  Mountain Waves  Volcanic Ashes






- Airport Elevation : 5600 ft
- IATA code : SMV


LSZS - Samedan

CURRENT METAR :
  • 252120Z AUTO VRB02KT CAVOK 04/M01 Q1032

EXPIRED METARs :
  • 252050Z AUTO 01009KT 340V060 9999 NCD 07/M02 Q1032
  • 252020Z AUTO 01009KT CAVOK 07/M02 Q1031
  • 251950Z AUTO 36009KT 9999 NCD 08/M02 Q1031
  • 251920Z AUTO 01008KT 9999 FEW050 07/M02 Q1031
  • 251850Z AUTO 35008KT CAVOK 08/M02 Q1030

TAF TAF LSZS
Valid from the 25 at 15:00 until the 26 at 00:00 UTC


251425Z 2515/2524 33009KT 9999 FEW060 TX14/2515Z
PROB40
TEMPO 2515/2521 04015G25KT
ATIS : +41 81 834 93 24



MET'MAP, your aeronautical weather chart ! - Copyright ORBIFLY December 2007 - Disclaimer

ORBIFLY MET'MAP TEAM :

Programming & Development : Alexandra Zaïnal
Concept & original design : Baudouin d'Aumeries
Assistance for programming : Marc-Olivier Méhu
Technical & hardware support : Manuel Goepfert

Contact : metmap@orbifly.com




SOURCES & CREDITS :

   NOAA